Terminal Aerodrome Forecast
Issued by NWS

Home | Current Version | Previous Version | Text Only | Print | Product List | Glossary On
Versions: 1 2 3 4 5 6 7 8 9 10 11 12 13 14 15
000
FTUS42 TJSJ 142300 RRA
TAFJSJ
TAF
TJSJ 142339Z 1500/1524 05010KT P6SM -RA SCT022 SCT050 SCT100
     FM150330 08005KT P6SM VCSH SCT020 BKN040
      TEMPO 1506/1510 VRB12KT 5SM SHRA BKN022
     FM151430 06014G22KT P6SM FEW025 SCT060=

USA.gov is the U.S. government's official web portal to all federal, state and local government web resources and services.